sensor_id;sensor_type;location;lat;lon;timestamp;temperature;humidity
59309;DHT22;48433;53.016;-2.260;2023-10-09T00:00:14;17.80;99.90
59309;DHT22;48433;53.016;-2.260;2023-10-09T00:02:58;17.80;99.90
59309;DHT22;48433;53.016;-2.260;2023-10-09T00:05:28;17.80;99.90
59309;DHT22;48433;53.016;-2.260;2023-10-09T00:08:13;17.80;99.90
59309;DHT22;48433;53.016;-2.260;2023-10-09T00:10:49;17.70;99.90
59309;DHT22;48433;53.016;-2.260;2023-10-09T00:13:22;17.70;99.90
59309;DHT22;48433;53.016;-2.260;2023-10-09T00:16:03;17.70;99.90
59309;DHT22;48433;53.016;-2.260;2023-10-09T00:26:09;17.50;99.90
59309;DHT22;48433;53.016;-2.260;2023-10-09T00:28:42;17.50;99.90
59309;DHT22;48433;53.016;-2.260;2023-10-09T00:31:11;17.50;99.90
59309;DHT22;48433;53.016;-2.260;2023-10-09T00:33:43;17.40;99.90
59309;DHT22;48433;53.016;-2.260;2023-10-09T00:36:11;17.40;99.90
59309;DHT22;48433;53.016;-2.260;2023-10-09T00:38:45;17.40;99.90
59309;DHT22;48433;53.016;-2.260;2023-10-09T00:41:16;17.40;99.90
59309;DHT22;48433;53.016;-2.260;2023-10-09T00:43:49;17.40;99.90
59309;DHT22;48433;53.016;-2.260;2023-10-09T00:46:18;17.40;99.90
59309;DHT22;48433;53.016;-2.260;2023-10-09T00:48:48;17.30;99.90
59309;DHT22;48433;53.016;-2.260;2023-10-09T00:53:53;17.30;99.90
59309;DHT22;48433;53.016;-2.260;2023-10-09T00:56:22;17.30;99.90
59309;DHT22;48433;53.016;-2.260;2023-10-09T00:58:54;17.30;99.90
59309;DHT22;48433;53.016;-2.260;2023-10-09T01:01:42;17.30;99.90
59309;DHT22;48433;53.016;-2.260;2023-10-09T01:04:31;17.20;99.90
59309;DHT22;48433;53.016;-2.260;2023-10-09T01:07:00;17.20;99.90
59309;DHT22;48433;53.016;-2.260;2023-10-09T01:09:36;17.20;99.90
59309;DHT22;48433;53.016;-2.260;2023-10-09T01:20:04;17.10;99.90
59309;DHT22;48433;53.016;-2.260;2023-10-09T01:30:08;17.00;99.90
59309;DHT22;48433;53.016;-2.260;2023-10-09T01:35:13;17.00;99.90
59309;DHT22;48433;53.016;-2.260;2023-10-09T01:43:02;16.80;99.90
59309;DHT22;48433;53.016;-2.260;2023-10-09T01:45:31;16.70;99.90
59309;DHT22;48433;53.016;-2.260;2023-10-09T01:58:09;16.70;99.90
59309;DHT22;48433;53.016;-2.260;2023-10-09T02:08:27;16.60;99.90
59309;DHT22;48433;53.016;-2.260;2023-10-09T02:11:03;16.60;99.90
59309;DHT22;48433;53.016;-2.260;2023-10-09T02:13:31;16.60;99.90
59309;DHT22;48433;53.016;-2.260;2023-10-09T02:16:02;16.60;99.90
59309;DHT22;48433;53.016;-2.260;2023-10-09T02:18:42;16.50;99.90
59309;DHT22;48433;53.016;-2.260;2023-10-09T02:21:26;16.50;99.90
59309;DHT22;48433;53.016;-2.260;2023-10-09T02:24:15;16.50;99.90
59309;DHT22;48433;53.016;-2.260;2023-10-09T02:27:02;16.40;99.90
59309;DHT22;48433;53.016;-2.260;2023-10-09T02:32:05;16.40;99.90
59309;DHT22;48433;53.016;-2.260;2023-10-09T02:34:52;16.40;99.90
59309;DHT22;48433;53.016;-2.260;2023-10-09T02:37:21;16.30;99.90
59309;DHT22;48433;53.016;-2.260;2023-10-09T02:39:52;16.30;99.90
59309;DHT22;48433;53.016;-2.260;2023-10-09T02:42:20;16.30;99.90
59309;DHT22;48433;53.016;-2.260;2023-10-09T02:44:51;16.30;99.90
59309;DHT22;48433;53.016;-2.260;2023-10-09T02:47:19;16.20;99.90
59309;DHT22;48433;53.016;-2.260;2023-10-09T02:50:06;16.20;99.90
59309;DHT22;48433;53.016;-2.260;2023-10-09T02:52:36;16.20;99.90
59309;DHT22;48433;53.016;-2.260;2023-10-09T02:55:08;16.20;99.90
59309;DHT22;48433;53.016;-2.260;2023-10-09T02:57:40;16.20;99.90
59309;DHT22;48433;53.016;-2.260;2023-10-09T03:00:10;16.20;99.90
59309;DHT22;48433;53.016;-2.260;2023-10-09T03:02:47;16.20;99.90
59309;DHT22;48433;53.016;-2.260;2023-10-09T03:05:17;16.20;99.90
59309;DHT22;48433;53.016;-2.260;2023-10-09T03:58:45;16.50;99.90
59309;DHT22;48433;53.016;-2.260;2023-10-09T04:01:20;16.50;99.90
59309;DHT22;48433;53.016;-2.260;2023-10-09T04:19:01;16.70;99.90
59309;DHT22;48433;53.016;-2.260;2023-10-09T04:24:09;16.60;99.90
59309;DHT22;48433;53.016;-2.260;2023-10-09T04:26:50;16.70;99.90
59309;DHT22;48433;53.016;-2.260;2023-10-09T04:31:56;16.60;99.90
59309;DHT22;48433;53.016;-2.260;2023-10-09T04:36:56;16.60;99.90
59309;DHT22;48433;53.016;-2.260;2023-10-09T04:47:34;16.60;99.90
59309;DHT22;48433;53.016;-2.260;2023-10-09T04:50:07;16.60;99.90
59309;DHT22;48433;53.016;-2.260;2023-10-09T04:52:39;16.60;99.90
59309;DHT22;48433;53.016;-2.260;2023-10-09T04:57:40;16.60;99.90
59309;DHT22;48433;53.016;-2.260;2023-10-09T05:00:13;16.60;99.90
59309;DHT22;48433;53.016;-2.260;2023-10-09T05:03:04;16.60;99.90
59309;DHT22;48433;53.016;-2.260;2023-10-09T05:05:39;16.60;99.90
59309;DHT22;48433;53.016;-2.260;2023-10-09T05:08:15;16.60;99.90
59309;DHT22;48433;53.016;-2.260;2023-10-09T05:10:50;16.60;99.90
59309;DHT22;48433;53.016;-2.260;2023-10-09T05:16:25;16.60;99.90
59309;DHT22;48433;53.016;-2.260;2023-10-09T05:18:55;16.60;99.90
59309;DHT22;48433;53.016;-2.260;2023-10-09T05:24:03;16.60;99.90
59309;DHT22;48433;53.016;-2.260;2023-10-09T05:26:44;16.60;99.90
59309;DHT22;48433;53.016;-2.260;2023-10-09T05:29:23;16.60;99.90
59309;DHT22;48433;53.016;-2.260;2023-10-09T05:32:05;16.60;99.90
59309;DHT22;48433;53.016;-2.260;2023-10-09T05:34:44;16.60;99.90
59309;DHT22;48433;53.016;-2.260;2023-10-09T05:37:33;16.60;99.90
59309;DHT22;48433;53.016;-2.260;2023-10-09T05:40:04;16.60;99.90
59309;DHT22;48433;53.016;-2.260;2023-10-09T05:42:50;16.60;99.90
59309;DHT22;48433;53.016;-2.260;2023-10-09T05:45:41;16.60;99.90
59309;DHT22;48433;53.016;-2.260;2023-10-09T05:54:22;16.60;99.90
59309;DHT22;48433;53.016;-2.260;2023-10-09T05:57:08;16.70;99.90
59309;DHT22;48433;53.016;-2.260;2023-10-09T05:59:56;16.70;99.90
59309;DHT22;48433;53.016;-2.260;2023-10-09T06:02:43;16.70;99.90
59309;DHT22;48433;53.016;-2.260;2023-10-09T06:08:30;16.70;99.90
59309;DHT22;48433;53.016;-2.260;2023-10-09T06:14:00;16.70;99.90
59309;DHT22;48433;53.016;-2.260;2023-10-09T06:16:31;16.70;99.90
59309;DHT22;48433;53.016;-2.260;2023-10-09T06:19:11;16.70;99.90
59309;DHT22;48433;53.016;-2.260;2023-10-09T06:21:41;16.70;99.90
59309;DHT22;48433;53.016;-2.260;2023-10-09T06:24:15;16.70;99.90
59309;DHT22;48433;53.016;-2.260;2023-10-09T06:26:45;16.70;99.90
59309;DHT22;48433;53.016;-2.260;2023-10-09T06:29:40;16.70;99.90
59309;DHT22;48433;53.016;-2.260;2023-10-09T06:32:19;16.70;99.90
59309;DHT22;48433;53.016;-2.260;2023-10-09T06:34:56;16.70;99.90
59309;DHT22;48433;53.016;-2.260;2023-10-09T06:37:24;16.70;99.90
59309;DHT22;48433;53.016;-2.260;2023-10-09T06:39:54;16.70;99.90
59309;DHT22;48433;53.016;-2.260;2023-10-09T06:42:23;16.80;99.90
59309;DHT22;48433;53.016;-2.260;2023-10-09T06:45:09;16.80;99.90
59309;DHT22;48433;53.016;-2.260;2023-10-09T06:47:48;16.90;99.90
59309;DHT22;48433;53.016;-2.260;2023-10-09T06:50:35;16.90;99.90
59309;DHT22;48433;53.016;-2.260;2023-10-09T06:53:22;17.00;99.90
59309;DHT22;48433;53.016;-2.260;2023-10-09T06:55:55;17.00;99.90
59309;DHT22;48433;53.016;-2.260;2023-10-09T06:58:32;17.10;99.90
59309;DHT22;48433;53.016;-2.260;2023-10-09T07:01:09;17.10;99.90
59309;DHT22;48433;53.016;-2.260;2023-10-09T07:03:56;17.10;99.90
59309;DHT22;48433;53.016;-2.260;2023-10-09T07:06:43;17.10;99.90
59309;DHT22;48433;53.016;-2.260;2023-10-09T07:11:44;17.20;99.90
59309;DHT22;48433;53.016;-2.260;2023-10-09T07:14:22;17.20;99.90
59309;DHT22;48433;53.016;-2.260;2023-10-09T07:17:06;17.20;99.90
59309;DHT22;48433;53.016;-2.260;2023-10-09T07:19:50;17.20;99.90
59309;DHT22;48433;53.016;-2.260;2023-10-09T07:24:53;17.30;99.90
59309;DHT22;48433;53.016;-2.260;2023-10-09T07:30:12;17.30;99.90
59309;DHT22;48433;53.016;-2.260;2023-10-09T07:33:07;17.30;99.90
59309;DHT22;48433;53.016;-2.260;2023-10-09T07:35:48;17.30;99.90
59309;DHT22;48433;53.016;-2.260;2023-10-09T07:38:20;17.40;99.90
59309;DHT22;48433;53.016;-2.260;2023-10-09T07:40:51;17.40;99.90
59309;DHT22;48433;53.016;-2.260;2023-10-09T07:43:38;17.40;99.90
59309;DHT22;48433;53.016;-2.260;2023-10-09T07:46:19;17.40;99.90
59309;DHT22;48433;53.016;-2.260;2023-10-09T07:49:19;17.40;99.90
59309;DHT22;48433;53.016;-2.260;2023-10-09T07:51:54;17.50;99.90
59309;DHT22;48433;53.016;-2.260;2023-10-09T07:54:23;17.50;99.90
59309;DHT22;48433;53.016;-2.260;2023-10-09T07:57:00;17.50;99.90
59309;DHT22;48433;53.016;-2.260;2023-10-09T07:59:44;17.50;99.90
59309;DHT22;48433;53.016;-2.260;2023-10-09T08:02:38;17.60;99.90
59309;DHT22;48433;53.016;-2.260;2023-10-09T08:05:06;17.60;99.90
59309;DHT22;48433;53.016;-2.260;2023-10-09T08:07:49;17.70;99.90
59309;DHT22;48433;53.016;-2.260;2023-10-09T08:10:39;17.70;99.90
59309;DHT22;48433;53.016;-2.260;2023-10-09T08:13:25;17.80;99.90
59309;DHT22;48433;53.016;-2.260;2023-10-09T08:16:11;17.90;99.90
59309;DHT22;48433;53.016;-2.260;2023-10-09T08:21:19;18.00;99.90
59309;DHT22;48433;53.016;-2.260;2023-10-09T08:26:57;18.20;99.90
59309;DHT22;48433;53.016;-2.260;2023-10-09T08:29:43;18.30;99.90
59309;DHT22;48433;53.016;-2.260;2023-10-09T08:32:14;18.30;99.90
59309;DHT22;48433;53.016;-2.260;2023-10-09T08:35:09;18.30;99.90
59309;DHT22;48433;53.016;-2.260;2023-10-09T08:37:56;18.40;99.90
59309;DHT22;48433;53.016;-2.260;2023-10-09T08:40:34;18.40;99.90
59309;DHT22;48433;53.016;-2.260;2023-10-09T08:43:18;18.50;99.90
59309;DHT22;48433;53.016;-2.260;2023-10-09T08:45:54;18.50;99.90
59309;DHT22;48433;53.016;-2.260;2023-10-09T08:48:25;18.60;99.90
59309;DHT22;48433;53.016;-2.260;2023-10-09T08:50:55;18.60;99.90
59309;DHT22;48433;53.016;-2.260;2023-10-09T08:53:24;18.60;99.90
59309;DHT22;48433;53.016;-2.260;2023-10-09T08:55:51;18.70;99.90
59309;DHT22;48433;53.016;-2.260;2023-10-09T08:58:19;18.80;99.90
59309;DHT22;48433;53.016;-2.260;2023-10-09T09:00:48;18.80;99.90
59309;DHT22;48433;53.016;-2.260;2023-10-09T09:03:20;18.90;99.90
59309;DHT22;48433;53.016;-2.260;2023-10-09T09:06:00;18.90;99.90
59309;DHT22;48433;53.016;-2.260;2023-10-09T09:08:32;19.00;99.90
59309;DHT22;48433;53.016;-2.260;2023-10-09T09:11:15;19.00;99.90
59309;DHT22;48433;53.016;-2.260;2023-10-09T09:14:04;19.00;99.90
59309;DHT22;48433;53.016;-2.260;2023-10-09T09:16:34;19.20;99.90
59309;DHT22;48433;53.016;-2.260;2023-10-09T09:19:06;19.20;99.90
59309;DHT22;48433;53.016;-2.260;2023-10-09T09:21:38;19.20;99.90
59309;DHT22;48433;53.016;-2.260;2023-10-09T09:24:13;19.40;99.90
59309;DHT22;48433;53.016;-2.260;2023-10-09T09:26:56;19.40;99.90
59309;DHT22;48433;53.016;-2.260;2023-10-09T09:32:11;18.70;99.90
59309;DHT22;48433;53.016;-2.260;2023-10-09T09:34:49;19.70;99.90
59309;DHT22;48433;53.016;-2.260;2023-10-09T09:37:19;20.00;99.90
59309;DHT22;48433;53.016;-2.260;2023-10-09T09:39:48;20.30;99.90
59309;DHT22;48433;53.016;-2.260;2023-10-09T09:42:23;20.40;99.90
59309;DHT22;48433;53.016;-2.260;2023-10-09T09:44:55;20.50;99.90
59309;DHT22;48433;53.016;-2.260;2023-10-09T09:47:23;20.60;99.90
59309;DHT22;48433;53.016;-2.260;2023-10-09T09:49:57;20.80;99.90
59309;DHT22;48433;53.016;-2.260;2023-10-09T09:52:30;21.00;99.90
59309;DHT22;48433;53.016;-2.260;2023-10-09T09:55:09;21.20;99.90
59309;DHT22;48433;53.016;-2.260;2023-10-09T10:00:22;21.70;99.90
59309;DHT22;48433;53.016;-2.260;2023-10-09T10:03:10;21.70;99.90
59309;DHT22;48433;53.016;-2.260;2023-10-09T10:05:42;21.90;99.90
59309;DHT22;48433;53.016;-2.260;2023-10-09T10:08:19;22.10;99.90
59309;DHT22;48433;53.016;-2.260;2023-10-09T10:16:13;22.10;99.90
59309;DHT22;48433;53.016;-2.260;2023-10-09T10:19:00;22.30;99.90
59309;DHT22;48433;53.016;-2.260;2023-10-09T10:21:34;22.40;99.90
59309;DHT22;48433;53.016;-2.260;2023-10-09T10:24:02;22.30;99.90
59309;DHT22;48433;53.016;-2.260;2023-10-09T10:26:37;22.30;99.90
59309;DHT22;48433;53.016;-2.260;2023-10-09T10:29:19;22.50;99.90
59309;DHT22;48433;53.016;-2.260;2023-10-09T10:31:55;22.40;99.90
59309;DHT22;48433;53.016;-2.260;2023-10-09T10:34:24;22.50;99.90
59309;DHT22;48433;53.016;-2.260;2023-10-09T10:36:53;22.30;99.90
59309;DHT22;48433;53.016;-2.260;2023-10-09T10:39:27;22.30;99.90
59309;DHT22;48433;53.016;-2.260;2023-10-09T10:42:10;22.20;99.90
59309;DHT22;48433;53.016;-2.260;2023-10-09T10:47:27;22.00;99.90
59309;DHT22;48433;53.016;-2.260;2023-10-09T10:50:02;22.00;99.90
59309;DHT22;48433;53.016;-2.260;2023-10-09T10:53:12;21.90;99.90
59309;DHT22;48433;53.016;-2.260;2023-10-09T10:56:00;22.30;99.90
59309;DHT22;48433;53.016;-2.260;2023-10-09T10:58:55;22.60;99.90
59309;DHT22;48433;53.016;-2.260;2023-10-09T11:01:33;22.70;99.90
59309;DHT22;48433;53.016;-2.260;2023-10-09T11:04:22;22.80;99.90
59309;DHT22;48433;53.016;-2.260;2023-10-09T11:10:03;22.70;99.90
59309;DHT22;48433;53.016;-2.260;2023-10-09T11:15:11;22.50;99.90
59309;DHT22;48433;53.016;-2.260;2023-10-09T11:18:01;22.30;99.90
59309;DHT22;48433;53.016;-2.260;2023-10-09T11:20:35;22.20;99.90
59309;DHT22;48433;53.016;-2.260;2023-10-09T11:23:04;22.30;99.90
59309;DHT22;48433;53.016;-2.260;2023-10-09T11:25:45;22.30;99.90
59309;DHT22;48433;53.016;-2.260;2023-10-09T11:31:25;22.50;99.90
59309;DHT22;48433;53.016;-2.260;2023-10-09T11:33:53;22.60;99.90
59309;DHT22;48433;53.016;-2.260;2023-10-09T11:36:22;22.70;99.90
59309;DHT22;48433;53.016;-2.260;2023-10-09T11:39:02;22.70;99.90
59309;DHT22;48433;53.016;-2.260;2023-10-09T11:41:46;22.70;99.90
59309;DHT22;48433;53.016;-2.260;2023-10-09T11:44:17;22.70;99.90
59309;DHT22;48433;53.016;-2.260;2023-10-09T11:47:01;22.70;99.90
59309;DHT22;48433;53.016;-2.260;2023-10-09T11:49:58;22.60;99.90
59309;DHT22;48433;53.016;-2.260;2023-10-09T11:57:34;22.60;99.90
59309;DHT22;48433;53.016;-2.260;2023-10-09T12:00:04;22.60;99.90
59309;DHT22;48433;53.016;-2.260;2023-10-09T12:02:38;22.60;99.90
59309;DHT22;48433;53.016;-2.260;2023-10-09T12:07:48;22.50;99.90
59309;DHT22;48433;53.016;-2.260;2023-10-09T12:10:24;22.60;99.90
59309;DHT22;48433;53.016;-2.260;2023-10-09T12:12:55;22.70;99.90
59309;DHT22;48433;53.016;-2.260;2023-10-09T12:15:26;22.80;99.90
59309;DHT22;48433;53.016;-2.260;2023-10-09T12:18:07;23.00;99.90
59309;DHT22;48433;53.016;-2.260;2023-10-09T12:20:39;23.20;99.90
59309;DHT22;48433;53.016;-2.260;2023-10-09T12:25:36;23.80;99.90
59309;DHT22;48433;53.016;-2.260;2023-10-09T12:28:04;24.20;99.90
59309;DHT22;48433;53.016;-2.260;2023-10-09T12:30:32;24.50;99.90
59309;DHT22;48433;53.016;-2.260;2023-10-09T12:33:08;24.70;99.90
59309;DHT22;48433;53.016;-2.260;2023-10-09T12:35:37;24.80;99.90
59309;DHT22;48433;53.016;-2.260;2023-10-09T12:38:06;24.90;99.90
59309;DHT22;48433;53.016;-2.260;2023-10-09T12:40:37;25.00;99.90
59309;DHT22;48433;53.016;-2.260;2023-10-09T12:43:09;25.00;99.90
59309;DHT22;48433;53.016;-2.260;2023-10-09T12:45:47;25.20;99.90
59309;DHT22;48433;53.016;-2.260;2023-10-09T12:48:14;25.40;99.90
59309;DHT22;48433;53.016;-2.260;2023-10-09T12:50:42;25.60;99.90
59309;DHT22;48433;53.016;-2.260;2023-10-09T12:53:12;25.80;99.90
59309;DHT22;48433;53.016;-2.260;2023-10-09T12:55:45;25.80;99.90
59309;DHT22;48433;53.016;-2.260;2023-10-09T12:58:13;26.00;99.90
59309;DHT22;48433;53.016;-2.260;2023-10-09T13:00:45;26.10;99.90
59309;DHT22;48433;53.016;-2.260;2023-10-09T13:03:17;26.20;99.90
59309;DHT22;48433;53.016;-2.260;2023-10-09T13:05:53;26.10;99.90
59309;DHT22;48433;53.016;-2.260;2023-10-09T13:11:05;25.80;99.90
59309;DHT22;48433;53.016;-2.260;2023-10-09T13:13:40;25.80;99.90
59309;DHT22;48433;53.016;-2.260;2023-10-09T13:18:50;25.30;99.90
59309;DHT22;48433;53.016;-2.260;2023-10-09T13:21:24;25.20;99.90
59309;DHT22;48433;53.016;-2.260;2023-10-09T13:24:01;25.10;99.90
59309;DHT22;48433;53.016;-2.260;2023-10-09T13:29:02;24.90;99.90
59309;DHT22;48433;53.016;-2.260;2023-10-09T13:31:31;24.80;99.90
59309;DHT22;48433;53.016;-2.260;2023-10-09T13:36:33;24.80;99.90
59309;DHT22;48433;53.016;-2.260;2023-10-09T13:39:03;24.80;99.90
59309;DHT22;48433;53.016;-2.260;2023-10-09T13:41:58;24.80;99.90
59309;DHT22;48433;53.016;-2.260;2023-10-09T13:44:28;24.80;99.90
59309;DHT22;48433;53.016;-2.260;2023-10-09T13:46:58;24.70;99.90
59309;DHT22;48433;53.016;-2.260;2023-10-09T13:49:26;24.70;99.90
59309;DHT22;48433;53.016;-2.260;2023-10-09T13:52:02;24.70;99.90
59309;DHT22;48433;53.016;-2.260;2023-10-09T13:54:31;24.60;99.90
59309;DHT22;48433;53.016;-2.260;2023-10-09T13:57:02;24.60;99.90
59309;DHT22;48433;53.016;-2.260;2023-10-09T13:59:34;24.50;99.90
59309;DHT22;48433;53.016;-2.260;2023-10-09T14:02:10;24.40;99.90
59309;DHT22;48433;53.016;-2.260;2023-10-09T14:04:46;24.20;99.90
59309;DHT22;48433;53.016;-2.260;2023-10-09T14:07:15;24.20;99.90
59309;DHT22;48433;53.016;-2.260;2023-10-09T14:09:48;24.10;99.90
59309;DHT22;48433;53.016;-2.260;2023-10-09T14:12:35;24.10;99.90
59309;DHT22;48433;53.016;-2.260;2023-10-09T14:17:44;24.00;99.90
59309;DHT22;48433;53.016;-2.260;2023-10-09T14:20:14;23.90;99.90
59309;DHT22;48433;53.016;-2.260;2023-10-09T14:23:02;23.90;99.90
59309;DHT22;48433;53.016;-2.260;2023-10-09T14:25:40;23.80;99.90
59309;DHT22;48433;53.016;-2.260;2023-10-09T14:28:09;23.80;99.90
59309;DHT22;48433;53.016;-2.260;2023-10-09T14:30:37;23.70;99.90
59309;DHT22;48433;53.016;-2.260;2023-10-09T14:33:11;23.70;99.90
59309;DHT22;48433;53.016;-2.260;2023-10-09T14:35:44;23.70;99.90
59309;DHT22;48433;53.016;-2.260;2023-10-09T14:38:12;23.70;99.90
59309;DHT22;48433;53.016;-2.260;2023-10-09T14:40:44;23.70;99.90
59309;DHT22;48433;53.016;-2.260;2023-10-09T14:43:12;23.70;99.90
59309;DHT22;48433;53.016;-2.260;2023-10-09T14:45:47;23.70;99.90
59309;DHT22;48433;53.016;-2.260;2023-10-09T14:48:15;23.70;99.90
59309;DHT22;48433;53.016;-2.260;2023-10-09T14:50:50;23.60;99.90
59309;DHT22;48433;53.016;-2.260;2023-10-09T14:53:21;23.60;99.90
59309;DHT22;48433;53.016;-2.260;2023-10-09T14:55:56;23.60;99.90
59309;DHT22;48433;53.016;-2.260;2023-10-09T15:00:52;23.60;99.90
59309;DHT22;48433;53.016;-2.260;2023-10-09T15:03:22;23.60;99.90
59309;DHT22;48433;53.016;-2.260;2023-10-09T15:05:50;23.30;99.90
59309;DHT22;48433;53.016;-2.260;2023-10-09T15:08:18;23.60;99.90
59309;DHT22;48433;53.016;-2.260;2023-10-09T15:10:49;23.50;99.90
59309;DHT22;48433;53.016;-2.260;2023-10-09T15:15:47;23.60;99.90
59309;DHT22;48433;53.016;-2.260;2023-10-09T15:18:19;23.50;99.90
59309;DHT22;48433;53.016;-2.260;2023-10-09T15:20:49;23.50;99.90
59309;DHT22;48433;53.016;-2.260;2023-10-09T15:23:19;23.50;99.90
59309;DHT22;48433;53.016;-2.260;2023-10-09T15:25:50;23.50;99.90
59309;DHT22;48433;53.016;-2.260;2023-10-09T15:28:21;23.50;99.90
59309;DHT22;48433;53.016;-2.260;2023-10-09T15:30:49;23.50;99.90
59309;DHT22;48433;53.016;-2.260;2023-10-09T15:38:17;23.50;99.90
59309;DHT22;48433;53.016;-2.260;2023-10-09T15:40:45;23.50;99.90
59309;DHT22;48433;53.016;-2.260;2023-10-09T15:43:15;23.40;99.90
59309;DHT22;48433;53.016;-2.260;2023-10-09T15:48:16;23.30;99.90
59309;DHT22;48433;53.016;-2.260;2023-10-09T15:55:45;23.20;99.90
59309;DHT22;48433;53.016;-2.260;2023-10-09T16:03:14;22.60;99.90
59309;DHT22;48433;53.016;-2.260;2023-10-09T16:15:41;22.70;99.90
59309;DHT22;48433;53.016;-2.260;2023-10-09T16:20:39;22.70;99.90
59309;DHT22;48433;53.016;-2.260;2023-10-09T16:38:05;22.30;99.90
59309;DHT22;48433;53.016;-2.260;2023-10-09T16:43:14;22.20;99.90
59309;DHT22;48433;53.016;-2.260;2023-10-09T16:48:18;22.00;99.90
59309;DHT22;48433;53.016;-2.260;2023-10-09T16:50:46;22.00;99.90
59309;DHT22;48433;53.016;-2.260;2023-10-09T16:53:14;21.90;99.90
59309;DHT22;48433;53.016;-2.260;2023-10-09T17:00:43;21.60;99.90
59309;DHT22;48433;53.016;-2.260;2023-10-09T17:03:14;21.50;99.90
59309;DHT22;48433;53.016;-2.260;2023-10-09T17:05:42;21.40;99.90
59309;DHT22;48433;53.016;-2.260;2023-10-09T17:08:23;21.40;99.90
59309;DHT22;48433;53.016;-2.260;2023-10-09T17:18:21;21.00;99.90
59309;DHT22;48433;53.016;-2.260;2023-10-09T17:20:52;21.00;99.90
59309;DHT22;48433;53.016;-2.260;2023-10-09T17:23:22;20.90;99.90
59309;DHT22;48433;53.016;-2.260;2023-10-09T17:25:50;20.80;99.90
59309;DHT22;48433;53.016;-2.260;2023-10-09T17:31:00;20.70;99.90
59309;DHT22;48433;53.016;-2.260;2023-10-09T17:35:59;20.50;99.90
59309;DHT22;48433;53.016;-2.260;2023-10-09T17:38:27;20.40;99.90
59309;DHT22;48433;53.016;-2.260;2023-10-09T17:43:27;20.40;99.90
59309;DHT22;48433;53.016;-2.260;2023-10-09T17:48:24;20.20;99.90
59309;DHT22;48433;53.016;-2.260;2023-10-09T17:50:52;20.20;99.90
59309;DHT22;48433;53.016;-2.260;2023-10-09T17:55:52;20.00;99.90
59309;DHT22;48433;53.016;-2.260;2023-10-09T17:58:20;19.90;99.90
59309;DHT22;48433;53.016;-2.260;2023-10-09T18:00:53;19.90;99.90
59309;DHT22;48433;53.016;-2.260;2023-10-09T18:03:22;19.90;99.90
59309;DHT22;48433;53.016;-2.260;2023-10-09T18:08:23;19.70;99.90
59309;DHT22;48433;53.016;-2.260;2023-10-09T18:10:55;19.70;99.90
59309;DHT22;48433;53.016;-2.260;2023-10-09T18:16:06;19.60;99.90
59309;DHT22;48433;53.016;-2.260;2023-10-09T18:21:14;19.50;99.90
59309;DHT22;48433;53.016;-2.260;2023-10-09T18:23:47;19.50;99.90
59309;DHT22;48433;53.016;-2.260;2023-10-09T18:26:16;19.40;99.90
59309;DHT22;48433;53.016;-2.260;2023-10-09T18:28:46;19.30;99.90
59309;DHT22;48433;53.016;-2.260;2023-10-09T18:31:16;19.20;99.90
59309;DHT22;48433;53.016;-2.260;2023-10-09T18:33:45;19.20;99.90
59309;DHT22;48433;53.016;-2.260;2023-10-09T18:36:13;19.20;99.90
59309;DHT22;48433;53.016;-2.260;2023-10-09T18:38:41;19.10;99.90
59309;DHT22;48433;53.016;-2.260;2023-10-09T18:41:12;19.10;99.90
59309;DHT22;48433;53.016;-2.260;2023-10-09T18:43:40;19.10;99.90
59309;DHT22;48433;53.016;-2.260;2023-10-09T18:46:09;19.00;99.90
59309;DHT22;48433;53.016;-2.260;2023-10-09T18:48:40;18.90;99.90
59309;DHT22;48433;53.016;-2.260;2023-10-09T18:51:12;18.90;99.90
59309;DHT22;48433;53.016;-2.260;2023-10-09T18:53:42;18.90;99.90
59309;DHT22;48433;53.016;-2.260;2023-10-09T18:56:14;18.80;99.90
59309;DHT22;48433;53.016;-2.260;2023-10-09T18:58:42;18.70;99.90
59309;DHT22;48433;53.016;-2.260;2023-10-09T19:01:10;18.70;99.90
59309;DHT22;48433;53.016;-2.260;2023-10-09T19:03:42;18.70;99.90
59309;DHT22;48433;53.016;-2.260;2023-10-09T19:06:10;18.70;99.90
59309;DHT22;48433;53.016;-2.260;2023-10-09T19:08:40;18.60;99.90
59309;DHT22;48433;53.016;-2.260;2023-10-09T19:11:07;18.60;99.90
59309;DHT22;48433;53.016;-2.260;2023-10-09T19:13:39;18.50;99.90
59309;DHT22;48433;53.016;-2.260;2023-10-09T19:16:08;18.50;99.90
59309;DHT22;48433;53.016;-2.260;2023-10-09T19:18:42;18.50;99.90
59309;DHT22;48433;53.016;-2.260;2023-10-09T19:23:42;18.40;99.90
59309;DHT22;48433;53.016;-2.260;2023-10-09T19:28:44;18.30;99.90
59309;DHT22;48433;53.016;-2.260;2023-10-09T19:31:13;18.20;99.90
59309;DHT22;48433;53.016;-2.260;2023-10-09T19:33:50;18.20;99.90
59309;DHT22;48433;53.016;-2.260;2023-10-09T19:41:23;18.10;99.90
59309;DHT22;48433;53.016;-2.260;2023-10-09T19:43:52;18.10;99.90
59309;DHT22;48433;53.016;-2.260;2023-10-09T19:46:21;18.00;99.90
59309;DHT22;48433;53.016;-2.260;2023-10-09T19:48:56;18.00;99.90
59309;DHT22;48433;53.016;-2.260;2023-10-09T19:51:24;18.00;99.90
59309;DHT22;48433;53.016;-2.260;2023-10-09T19:53:51;18.00;99.90
59309;DHT22;48433;53.016;-2.260;2023-10-09T19:56:20;17.90;99.90
59309;DHT22;48433;53.016;-2.260;2023-10-09T19:58:53;17.80;99.90
59309;DHT22;48433;53.016;-2.260;2023-10-09T20:01:31;17.80;99.90
59309;DHT22;48433;53.016;-2.260;2023-10-09T20:03:59;17.80;99.90
59309;DHT22;48433;53.016;-2.260;2023-10-09T20:06:26;17.80;99.90
59309;DHT22;48433;53.016;-2.260;2023-10-09T20:08:57;17.80;99.90
59309;DHT22;48433;53.016;-2.260;2023-10-09T20:11:25;17.70;99.90
59309;DHT22;48433;53.016;-2.260;2023-10-09T20:13:53;17.70;99.90
59309;DHT22;48433;53.016;-2.260;2023-10-09T20:16:21;17.70;99.90
59309;DHT22;48433;53.016;-2.260;2023-10-09T20:18:54;17.60;99.90
59309;DHT22;48433;53.016;-2.260;2023-10-09T20:21:22;17.60;99.90
59309;DHT22;48433;53.016;-2.260;2023-10-09T20:23:51;17.60;99.90
59309;DHT22;48433;53.016;-2.260;2023-10-09T20:26:18;17.60;99.90
59309;DHT22;48433;53.016;-2.260;2023-10-09T20:28:46;17.60;99.90
59309;DHT22;48433;53.016;-2.260;2023-10-09T20:31:15;17.60;99.90
59309;DHT22;48433;53.016;-2.260;2023-10-09T20:33:43;17.50;99.90
59309;DHT22;48433;53.016;-2.260;2023-10-09T20:36:13;17.60;99.90
59309;DHT22;48433;53.016;-2.260;2023-10-09T20:38:48;17.50;99.90
59309;DHT22;48433;53.016;-2.260;2023-10-09T20:41:16;17.50;99.90
59309;DHT22;48433;53.016;-2.260;2023-10-09T20:43:44;17.40;99.90
59309;DHT22;48433;53.016;-2.260;2023-10-09T20:46:13;17.40;99.90
59309;DHT22;48433;53.016;-2.260;2023-10-09T20:48:44;17.30;99.90
59309;DHT22;48433;53.016;-2.260;2023-10-09T20:51:15;17.30;99.90
59309;DHT22;48433;53.016;-2.260;2023-10-09T20:53:43;17.30;99.90
59309;DHT22;48433;53.016;-2.260;2023-10-09T20:58:39;17.20;99.90
59309;DHT22;48433;53.016;-2.260;2023-10-09T21:01:10;17.10;99.90
59309;DHT22;48433;53.016;-2.260;2023-10-09T21:03:48;17.10;99.90
59309;DHT22;48433;53.016;-2.260;2023-10-09T21:06:19;17.10;99.90
59309;DHT22;48433;53.016;-2.260;2023-10-09T21:11:20;17.00;99.90
59309;DHT22;48433;53.016;-2.260;2023-10-09T21:13:48;17.00;99.90